createdAt,value
2019-03-05T00:00:55.699Z,46.89
2019-03-05T00:03:23.183Z,46.85
2019-03-05T00:05:50.712Z,46.88
2019-03-05T00:08:18.113Z,46.95
2019-03-05T00:10:45.536Z,46.92
2019-03-05T00:13:12.959Z,46.91
2019-03-05T00:15:40.367Z,46.92
2019-03-05T00:18:07.793Z,47.03
2019-03-05T00:20:35.180Z,47.29
2019-03-05T00:23:02.612Z,47.50
2019-03-05T00:25:30.800Z,47.63
2019-03-05T00:27:59.878Z,47.83
2019-03-05T00:30:38.910Z,47.94
2019-03-05T00:33:08.641Z,48.12
2019-03-05T00:35:38.528Z,48.06
2019-03-05T00:38:13.519Z,47.98
2019-03-05T00:40:51.426Z,47.94
2019-03-05T00:43:19.384Z,47.44
2019-03-05T00:45:50.395Z,47.39
2019-03-05T00:48:30.427Z,47.17
2019-03-05T00:51:10.907Z,47.17
2019-03-05T00:53:52.162Z,47.17
2019-03-05T00:56:22.112Z,47.16
2019-03-05T00:58:50.359Z,46.82
2019-03-05T01:01:30.299Z,46.57
2019-03-05T01:04:03.343Z,46.34
2019-03-05T01:06:30.789Z,46.15
2019-03-05T01:08:58.326Z,46.23
2019-03-05T01:11:25.723Z,46.26
2019-03-05T01:13:53.287Z,45.86
2019-03-05T01:16:20.690Z,45.53
2019-03-05T01:18:48.079Z,45.46
2019-03-05T01:21:15.479Z,45.43
2019-03-05T01:23:43.049Z,45.54
2019-03-05T01:26:10.450Z,45.64
2019-03-05T01:28:37.902Z,45.82
2019-03-05T01:31:08.036Z,46.00
2019-03-05T01:33:36.338Z,46.20
2019-03-05T01:36:04.864Z,46.76
2019-03-05T01:38:32.313Z,47.37
2019-03-05T01:40:59.709Z,47.89
2019-03-05T01:43:27.188Z,48.51
2019-03-05T01:45:54.607Z,48.56
2019-03-05T01:48:22.059Z,48.81
2019-03-05T01:50:49.461Z,49.25
2019-03-05T01:53:16.867Z,49.34
2019-03-05T01:55:44.317Z,49.13
2019-03-05T01:58:11.728Z,49.05
2019-03-05T02:00:40.166Z,49.06
2019-03-05T02:03:07.560Z,49.07
2019-03-05T02:05:34.971Z,49.04
2019-03-05T02:08:02.404Z,49.28
2019-03-05T02:10:29.817Z,49.44
2019-03-05T02:12:57.227Z,49.58
2019-03-05T02:15:24.690Z,49.76
2019-03-05T02:17:52.090Z,49.97
2019-03-05T02:20:19.493Z,50.09
2019-03-05T02:22:46.900Z,50.28
2019-03-05T02:28:22.655Z,50.06
2019-03-05T02:30:53.976Z,50.25
2019-03-05T02:36:34.115Z,50.43
2019-03-05T02:39:02.355Z,50.38
2019-03-05T02:41:32.125Z,50.50
2019-03-05T02:44:15.113Z,50.80
2019-03-05T02:46:47.118Z,51.09
2019-03-05T02:49:20.075Z,51.29
2019-03-05T02:51:54.156Z,51.44
2019-03-05T02:54:27.058Z,51.41
2019-03-05T02:57:11.873Z,51.56
2019-03-05T02:59:39.312Z,51.54
2019-03-05T03:02:12.213Z,51.44
2019-03-05T03:04:50.310Z,51.44
2019-03-05T03:07:17.778Z,51.50
2019-03-05T03:12:44.158Z,50.92
2019-03-05T03:15:11.569Z,51.01
2019-03-05T03:17:38.959Z,51.27
2019-03-05T03:20:08.291Z,51.41
2019-03-05T03:22:35.721Z,51.45
2019-03-05T03:25:03.149Z,51.42
2019-03-05T03:27:30.557Z,51.55
2019-03-05T03:29:57.962Z,51.58
2019-03-05T03:32:25.362Z,51.42
2019-03-05T03:34:52.801Z,51.38
2019-03-05T03:37:20.236Z,51.37
2019-03-05T03:39:48.093Z,51.48
2019-03-05T03:42:15.559Z,51.42
2019-03-05T03:44:42.965Z,51.31
2019-03-05T03:47:10.956Z,51.35
2019-03-05T03:49:38.466Z,51.30
2019-03-05T03:52:05.867Z,51.17
2019-03-05T03:54:33.290Z,51.13
2019-03-05T03:57:00.730Z,51.09
2019-03-05T03:59:28.160Z,50.94
2019-03-05T04:01:55.643Z,51.01
2019-03-05T04:04:23.074Z,50.94
2019-03-05T04:06:50.505Z,50.92
2019-03-05T04:09:17.917Z,50.89
2019-03-05T04:11:45.320Z,50.94
2019-03-05T04:14:12.833Z,50.91
2019-03-05T04:16:40.356Z,50.94
2019-03-05T04:19:07.788Z,50.88
2019-03-05T04:21:35.196Z,50.77
2019-03-05T04:24:02.584Z,50.81
2019-03-05T04:26:29.995Z,50.84
2019-03-05T04:28:58.274Z,50.92
2019-03-05T04:31:25.762Z,51.04
2019-03-05T04:33:53.177Z,51.06
2019-03-05T04:36:20.569Z,51.12
2019-03-05T04:38:48.094Z,50.99
2019-03-05T04:41:15.528Z,50.99
2019-03-05T04:43:42.955Z,51.03
2019-03-05T04:46:15.859Z,51.09
2019-03-05T04:48:43.273Z,51.24
2019-03-05T04:51:10.690Z,51.15
2019-03-05T04:53:38.083Z,51.08
2019-03-05T04:56:05.483Z,51.12
2019-03-05T04:58:32.886Z,51.12
2019-03-05T05:01:00.393Z,51.19
2019-03-05T05:03:28.655Z,51.07
2019-03-05T05:05:56.060Z,51.00
2019-03-05T05:08:23.453Z,50.83
2019-03-05T05:10:50.896Z,50.64
2019-03-05T05:13:18.303Z,50.51
2019-03-05T05:15:45.701Z,50.53
2019-03-05T05:18:13.112Z,50.40
2019-03-05T05:20:40.527Z,50.32
2019-03-05T05:23:07.988Z,50.29
2019-03-05T05:25:35.443Z,50.21
2019-03-05T05:28:02.844Z,50.29
2019-03-05T05:30:30.314Z,50.31
2019-03-05T05:32:57.643Z,50.32
2019-03-05T05:35:25.200Z,50.38
2019-03-05T05:37:52.645Z,50.49
2019-03-05T05:40:36.523Z,50.48
2019-03-05T05:43:04.333Z,50.63
2019-03-05T05:45:39.353Z,50.69
2019-03-05T05:48:06.776Z,50.85
2019-03-05T05:50:34.279Z,50.80
2019-03-05T05:53:01.705Z,50.72
2019-03-05T05:55:29.183Z,50.68
2019-03-05T05:57:56.562Z,50.62
2019-03-05T06:00:24.012Z,50.64
2019-03-05T06:02:51.418Z,51.80
2019-03-05T06:05:18.871Z,51.17
2019-03-05T06:07:46.325Z,51.30
2019-03-05T06:10:13.930Z,51.31
2019-03-05T06:12:41.318Z,51.47
2019-03-05T06:15:09.424Z,51.26
2019-03-05T06:17:36.964Z,51.18
2019-03-05T06:20:04.356Z,51.04
2019-03-05T06:22:31.760Z,50.94
2019-03-05T06:25:00.398Z,50.85
2019-03-05T06:27:27.519Z,50.71
2019-03-05T06:29:55.037Z,50.60
2019-03-05T06:32:22.435Z,50.55
2019-03-05T06:34:49.882Z,50.51
2019-03-05T06:37:17.542Z,50.54
2019-03-05T06:39:45.053Z,50.59
2019-03-05T06:42:12.523Z,50.68
2019-03-05T06:44:39.963Z,50.66
2019-03-05T06:47:07.371Z,50.68
2019-03-05T06:49:34.792Z,50.60
2019-03-05T06:52:02.179Z,50.33
2019-03-05T06:54:30.431Z,50.21
2019-03-05T06:56:57.828Z,50.02
2019-03-05T06:59:25.343Z,49.95
2019-03-05T07:01:53.026Z,49.93
2019-03-05T07:04:20.772Z,49.82
2019-03-05T07:06:51.028Z,49.70
2019-03-05T07:09:30.238Z,49.71
2019-03-05T07:12:01.357Z,49.77
2019-03-05T07:14:51.225Z,49.73
2019-03-05T07:17:29.037Z,49.56
2019-03-05T07:23:00.035Z,48.84
2019-03-05T07:25:28.098Z,48.36
2019-03-05T07:27:55.517Z,48.21
2019-03-05T07:30:22.970Z,48.35
2019-03-05T07:32:50.422Z,48.28
2019-03-05T07:35:17.807Z,48.28
2019-03-05T07:37:45.492Z,48.27
2019-03-05T07:40:12.957Z,48.24
2019-03-05T07:42:40.378Z,47.95
2019-03-05T07:45:08.574Z,47.28
2019-03-05T07:47:36.943Z,46.85
2019-03-05T07:50:05.185Z,46.09
2019-03-05T07:52:32.620Z,45.46
2019-03-05T07:55:00.334Z,45.19
2019-03-05T07:57:27.526Z,44.69
2019-03-05T07:59:54.944Z,44.03
2019-03-05T08:02:22.462Z,43.60
2019-03-05T08:04:49.909Z,43.37
2019-03-05T08:07:17.319Z,42.76
2019-03-05T08:09:44.717Z,42.72
2019-03-05T08:12:21.336Z,42.62
2019-03-05T08:15:10.402Z,42.25
2019-03-05T08:17:37.855Z,41.82
2019-03-05T08:20:08.305Z,41.89
2019-03-05T08:22:35.730Z,41.39
2019-03-05T08:25:03.229Z,40.98
2019-03-05T08:27:31.478Z,40.76
2019-03-05T08:29:58.990Z,40.67
2019-03-05T08:32:26.469Z,41.16
2019-03-05T08:34:53.869Z,40.97
2019-03-05T08:37:21.340Z,40.66
2019-03-05T08:39:48.659Z,40.48
2019-03-05T08:44:50.646Z,39.79
2019-03-05T08:47:16.727Z,39.68
2019-03-05T08:49:44.267Z,39.88
2019-03-05T08:52:11.276Z,39.89
2019-03-05T08:54:38.217Z,40.04
2019-03-05T08:57:05.617Z,40.39
2019-03-05T08:59:33.042Z,40.36
2019-03-05T09:02:00.633Z,40.09
2019-03-05T09:04:27.592Z,39.66
2019-03-05T09:06:54.591Z,39.67
2019-03-05T09:09:21.572Z,39.54
2019-03-05T09:11:48.658Z,39.58
2019-03-05T09:14:16.637Z,39.39
2019-03-05T09:16:43.600Z,39.11
2019-03-05T09:19:10.652Z,38.58
2019-03-05T09:21:37.601Z,38.37
2019-03-05T09:24:04.605Z,38.13
2019-03-05T09:26:31.718Z,37.62
2019-03-05T09:28:58.840Z,37.55
2019-03-05T09:31:26.390Z,37.55
2019-03-05T09:33:53.370Z,37.65
2019-03-05T09:36:20.409Z,37.57
2019-03-05T09:38:47.454Z,37.25
2019-03-05T09:41:14.494Z,36.95
2019-03-05T09:43:41.558Z,36.61
2019-03-05T09:46:08.493Z,36.28
2019-03-05T09:48:35.501Z,35.83
2019-03-05T09:51:02.553Z,35.57
2019-03-05T09:53:29.650Z,35.52
2019-03-05T09:55:56.622Z,35.32
2019-03-05T09:58:23.731Z,35.86
2019-03-05T10:00:50.727Z,36.52
2019-03-05T10:03:18.726Z,36.21
2019-03-05T10:05:46.084Z,35.94
2019-03-05T10:08:12.962Z,35.53
2019-03-05T10:10:39.922Z,35.50
2019-03-05T10:13:06.912Z,34.84
2019-03-05T10:15:33.917Z,35.07
2019-03-05T10:18:11.780Z,34.84
2019-03-05T10:20:28.684Z,34.55
2019-03-05T10:22:57.907Z,34.19
2019-03-05T10:25:23.310Z,33.60
2019-03-05T10:27:50.287Z,33.18
2019-03-05T10:30:24.813Z,32.55
2019-03-05T10:32:47.649Z,31.91
2019-03-05T10:35:15.042Z,31.35
2019-03-05T10:37:42.552Z,31.32
2019-03-05T10:40:10.823Z,31.15
2019-03-05T10:42:38.263Z,30.95
2019-03-05T10:45:06.023Z,30.79
2019-03-05T10:47:33.588Z,29.86
2019-03-05T10:50:00.981Z,29.58
2019-03-05T10:52:28.475Z,29.53
2019-03-05T10:54:55.863Z,29.10
2019-03-05T10:57:23.291Z,27.76
2019-03-05T10:59:51.086Z,28.50
2019-03-05T11:02:18.627Z,28.29
2019-03-05T11:04:46.178Z,28.07
2019-03-05T11:07:13.854Z,27.94
2019-03-05T11:09:41.374Z,27.44
2019-03-05T11:12:08.770Z,26.68
2019-03-05T11:14:36.438Z,26.15
2019-03-05T11:17:03.417Z,25.91
2019-03-05T11:19:30.707Z,25.53
2019-03-05T11:21:57.651Z,25.78
2019-03-05T11:24:24.733Z,27.50
2019-03-05T11:26:51.946Z,28.56
2019-03-05T11:29:19.007Z,29.14
2019-03-05T11:31:45.938Z,30.47
2019-03-05T11:34:13.411Z,30.99
2019-03-05T11:36:40.329Z,29.82
2019-03-05T11:39:07.395Z,28.35
2019-03-05T11:41:34.870Z,28.28
2019-03-05T11:44:02.329Z,27.70
2019-03-05T11:46:29.795Z,27.13
2019-03-05T11:48:57.225Z,26.36
2019-03-05T11:51:24.714Z,27.02
2019-03-05T11:53:52.380Z,26.08
2019-03-05T11:56:19.844Z,25.78
2019-03-05T11:58:47.394Z,25.16
2019-03-05T12:01:14.826Z,24.69
2019-03-05T12:03:42.397Z,23.71
2019-03-05T12:06:09.787Z,23.92
2019-03-05T12:08:37.230Z,23.99
2019-03-05T12:11:04.475Z,23.83
2019-03-05T12:13:31.471Z,23.62
2019-03-05T12:15:58.551Z,23.31
2019-03-05T12:18:25.617Z,22.71
2019-03-05T12:20:52.585Z,23.55
2019-03-05T12:23:19.538Z,23.18
2019-03-05T12:25:46.977Z,22.51
2019-03-05T12:28:15.270Z,22.40
2019-03-05T12:30:42.757Z,22.93
2019-03-05T12:33:10.253Z,22.28
2019-03-05T12:35:37.662Z,21.66
2019-03-05T12:38:05.119Z,20.62
2019-03-05T12:40:32.580Z,21.31
2019-03-05T12:43:00.012Z,20.92
2019-03-05T12:45:27.629Z,21.07
2019-03-05T12:47:55.100Z,20.73
2019-03-05T12:50:25.303Z,20.56
2019-03-05T12:52:52.713Z,20.48
2019-03-05T12:55:20.339Z,20.67
2019-03-05T12:57:47.792Z,20.16
2019-03-05T13:00:24.871Z,19.88
2019-03-05T13:02:52.316Z,20.08
2019-03-05T13:05:19.872Z,20.11
2019-03-05T13:07:47.280Z,20.20
2019-03-05T13:10:16.537Z,20.41
2019-03-05T13:12:44.210Z,20.47
2019-03-05T13:15:34.416Z,20.11
2019-03-05T13:18:01.868Z,19.75
2019-03-05T13:20:29.267Z,19.97
2019-03-05T13:22:56.823Z,20.21
2019-03-05T13:25:28.356Z,19.87
2019-03-05T13:27:53.396Z,19.85
2019-03-05T13:30:28.507Z,19.83
2019-03-05T13:32:59.096Z,19.98
2019-03-05T13:35:25.374Z,19.97
2019-03-05T13:37:54.673Z,19.92
2019-03-05T13:40:23.868Z,19.94
2019-03-05T13:42:51.315Z,20.28
2019-03-05T13:45:18.761Z,20.84
2019-03-05T13:47:47.672Z,20.51
2019-03-05T13:53:22.947Z,19.97
2019-03-05T13:58:51.131Z,19.45
2019-03-05T14:01:18.562Z,19.40
2019-03-05T14:03:46.879Z,19.33
2019-03-05T14:06:19.807Z,19.16
2019-03-05T14:09:09.589Z,19.19
2019-03-05T14:11:37.036Z,18.98
2019-03-05T14:14:04.487Z,19.06
2019-03-05T14:16:31.966Z,19.39
2019-03-05T14:18:59.465Z,19.13
2019-03-05T14:21:27.126Z,19.57
2019-03-05T14:23:54.699Z,21.16
2019-03-05T14:26:22.077Z,21.60
2019-03-05T14:28:49.492Z,21.00
2019-03-05T14:31:17.732Z,20.42
2019-03-05T14:33:45.193Z,20.21
2019-03-05T14:36:12.589Z,19.76
2019-03-05T14:38:40.113Z,19.65
2019-03-05T14:41:07.512Z,19.44
2019-03-05T14:43:34.981Z,18.69
2019-03-05T14:46:02.451Z,19.20
2019-03-05T14:48:31.364Z,20.07
2019-03-05T14:50:58.820Z,19.84
2019-03-05T14:53:26.923Z,19.45
2019-03-05T14:55:55.445Z,19.00
2019-03-05T14:58:22.862Z,19.86
2019-03-05T15:00:50.277Z,19.94
2019-03-05T15:03:18.004Z,19.45
2019-03-05T15:05:45.464Z,19.04
2019-03-05T15:08:13.162Z,19.28
2019-03-05T15:10:40.772Z,18.93
2019-03-05T15:13:15.713Z,18.74
2019-03-05T15:15:35.851Z,18.56
2019-03-05T15:18:03.431Z,18.52
2019-03-05T15:20:30.877Z,18.10
2019-03-05T15:22:58.416Z,17.74
2019-03-05T15:25:27.119Z,17.32
2019-03-05T15:27:55.971Z,17.34
2019-03-05T15:30:23.456Z,16.54
2019-03-05T15:32:50.915Z,15.75
2019-03-05T15:35:18.419Z,15.20
2019-03-05T15:37:45.904Z,14.26
2019-03-05T15:40:13.326Z,14.56
2019-03-05T15:42:40.710Z,18.04
2019-03-05T15:45:08.192Z,16.44
2019-03-05T15:47:35.685Z,14.89
2019-03-05T15:50:03.179Z,15.23
2019-03-05T15:52:30.594Z,13.93
2019-03-05T15:54:58.051Z,13.20
2019-03-05T15:57:26.388Z,14.39
2019-03-05T15:59:52.926Z,14.68
2019-03-05T16:02:20.318Z,15.98
2019-03-05T16:04:47.733Z,14.44
2019-03-05T16:07:15.153Z,13.82
2019-03-05T16:09:43.959Z,14.05
2019-03-05T16:12:10.780Z,13.65
2019-03-05T16:14:37.587Z,12.66
2019-03-05T16:17:05.013Z,11.99
2019-03-05T16:19:32.792Z,11.97
2019-03-05T16:22:00.188Z,12.02
2019-03-05T16:24:27.740Z,12.17
2019-03-05T16:26:56.794Z,12.02
2019-03-05T16:29:21.980Z,12.04
2019-03-05T16:31:52.742Z,12.23
2019-03-05T16:37:12.416Z,11.51
2019-03-05T16:39:39.910Z,11.49
2019-03-05T16:42:10.167Z,11.61
2019-03-05T16:44:39.355Z,11.90
2019-03-05T16:47:06.796Z,12.40
2019-03-05T16:49:49.231Z,13.45
2019-03-05T16:52:32.027Z,13.99
2019-03-05T16:55:05.005Z,14.16
2019-03-05T16:57:38.194Z,14.40
2019-03-05T17:00:12.908Z,15.20
2019-03-05T17:02:45.783Z,15.84
2019-03-05T17:05:28.078Z,17.12
2019-03-05T17:07:55.560Z,19.04
2019-03-05T17:10:36.240Z,21.03
2019-03-05T17:13:03.660Z,22.58
2019-03-05T17:15:31.089Z,23.70
2019-03-05T17:17:58.551Z,24.64
2019-03-05T17:20:26.070Z,25.48
2019-03-05T17:22:53.465Z,26.25
2019-03-05T17:25:20.991Z,26.63
2019-03-05T17:27:48.394Z,27.13
2019-03-05T17:30:16.121Z,27.67
2019-03-05T17:32:43.908Z,28.03
2019-03-05T17:35:11.423Z,28.34
2019-03-05T17:37:38.916Z,28.53
2019-03-05T17:40:06.326Z,29.06
2019-03-05T17:42:33.750Z,29.08
2019-03-05T17:45:01.261Z,29.38
2019-03-05T17:47:28.676Z,29.69
2019-03-05T17:49:56.200Z,29.84
2019-03-05T17:52:24.456Z,29.86
2019-03-05T17:54:51.859Z,30.27
2019-03-05T17:57:19.260Z,30.52
2019-03-05T17:59:46.737Z,30.54
2019-03-05T18:02:14.176Z,30.74
2019-03-05T18:04:41.625Z,30.71
2019-03-05T18:07:09.070Z,30.79
2019-03-05T18:09:36.542Z,31.02
2019-03-05T18:12:03.959Z,31.09
2019-03-05T18:14:31.391Z,31.27
2019-03-05T18:16:58.815Z,31.76
2019-03-05T18:19:26.333Z,32.02
2019-03-05T18:21:53.759Z,32.36
2019-03-05T18:24:21.197Z,32.54
2019-03-05T18:26:48.626Z,32.87
2019-03-05T18:29:16.077Z,32.98
2019-03-05T18:31:43.490Z,33.17
2019-03-05T18:34:10.972Z,33.18
2019-03-05T18:36:38.433Z,33.28
2019-03-05T18:39:05.919Z,33.16
2019-03-05T18:41:33.506Z,33.23
2019-03-05T18:44:00.974Z,33.33
2019-03-05T18:46:28.727Z,33.55
2019-03-05T18:48:56.842Z,33.63
2019-03-05T18:51:24.265Z,33.72
2019-03-05T18:53:51.705Z,34.01
2019-03-05T18:56:19.897Z,34.06
2019-03-05T18:58:47.329Z,33.89
2019-03-05T19:01:14.916Z,33.83
2019-03-05T19:03:42.433Z,34.16
2019-03-05T19:06:09.905Z,34.43
2019-03-05T19:08:37.471Z,34.71
2019-03-05T19:11:04.906Z,34.99
2019-03-05T19:13:32.314Z,35.10
2019-03-05T19:15:59.871Z,35.27
2019-03-05T19:18:27.291Z,35.41
2019-03-05T19:20:54.685Z,35.56
2019-03-05T19:23:22.113Z,35.57
2019-03-05T19:25:49.587Z,35.62
2019-03-05T19:28:17.068Z,35.71
2019-03-05T19:30:48.321Z,35.72
2019-03-05T19:33:15.848Z,35.83
2019-03-05T19:35:43.271Z,35.41
2019-03-05T19:38:10.853Z,35.62
2019-03-05T19:40:38.295Z,35.80
2019-03-05T19:43:05.801Z,36.09
2019-03-05T19:45:33.238Z,36.05
2019-03-05T19:48:00.698Z,36.27
2019-03-05T19:50:28.092Z,36.34
2019-03-05T19:52:55.535Z,37.06
2019-03-05T19:55:22.967Z,37.21
2019-03-05T19:57:50.407Z,37.32
2019-03-05T20:00:22.277Z,37.57
2019-03-05T20:02:49.755Z,37.69
2019-03-05T20:05:17.218Z,37.91
2019-03-05T20:07:44.611Z,38.33
2019-03-05T20:10:13.743Z,38.67
2019-03-05T20:12:41.187Z,39.05
2019-03-05T20:15:08.594Z,39.10
2019-03-05T20:17:36.362Z,39.40
2019-03-05T20:20:04.156Z,39.71
2019-03-05T20:22:31.939Z,40.42
2019-03-05T20:24:59.334Z,40.56
2019-03-05T20:27:26.774Z,41.22
2019-03-05T20:29:54.317Z,42.26
2019-03-05T20:32:21.733Z,42.18
2019-03-05T20:34:49.201Z,42.03
2019-03-05T20:37:16.677Z,42.36
2019-03-05T20:39:44.197Z,42.50
2019-03-05T20:42:12.401Z,42.77
2019-03-05T20:44:39.787Z,42.94
2019-03-05T20:47:07.354Z,42.93
2019-03-05T20:49:34.936Z,43.15
2019-03-05T20:52:02.414Z,43.47
2019-03-05T20:54:29.971Z,43.94
2019-03-05T20:56:57.383Z,44.09
2019-03-05T20:59:24.830Z,44.38
2019-03-05T21:01:52.393Z,44.98
2019-03-05T21:04:19.827Z,45.39
2019-03-05T21:06:47.428Z,45.64
2019-03-05T21:09:16.500Z,45.80
2019-03-05T21:11:43.961Z,46.00
2019-03-05T21:14:11.527Z,46.50
2019-03-05T21:16:38.974Z,46.90
2019-03-05T21:19:06.491Z,46.83
2019-03-05T21:21:34.100Z,46.80
2019-03-05T21:24:01.512Z,46.96
2019-03-05T21:26:28.919Z,47.19
2019-03-05T21:28:56.364Z,47.26
2019-03-05T21:31:23.917Z,47.35
2019-03-05T21:33:51.999Z,47.85
2019-03-05T21:36:18.869Z,48.33
2019-03-05T21:38:46.448Z,48.47
2019-03-05T21:41:13.878Z,48.50
2019-03-05T21:43:41.427Z,48.59
2019-03-05T21:46:09.615Z,48.42
2019-03-05T21:48:37.054Z,49.13
2019-03-05T21:51:04.517Z,50.07
2019-03-05T21:53:31.951Z,50.13
2019-03-05T21:55:59.359Z,50.00
2019-03-05T21:58:26.889Z,49.87
2019-03-05T22:00:54.323Z,49.56
2019-03-05T22:03:21.851Z,49.34
2019-03-05T22:05:49.286Z,49.18
2019-03-05T22:08:16.756Z,49.23
2019-03-05T22:10:44.207Z,48.94
2019-03-05T22:13:11.610Z,48.73
2019-03-05T22:15:39.011Z,48.60
2019-03-05T22:18:06.434Z,48.33
2019-03-05T22:20:34.686Z,47.93
2019-03-05T22:23:02.088Z,47.92
2019-03-05T22:25:29.638Z,48.04
2019-03-05T22:27:57.124Z,48.40
2019-03-05T22:30:28.889Z,48.44
2019-03-05T22:32:56.379Z,48.33
2019-03-05T22:35:24.587Z,48.29
2019-03-05T22:37:52.039Z,48.45
2019-03-05T22:40:20.235Z,48.64
2019-03-05T22:42:47.631Z,48.28
2019-03-05T22:45:30.592Z,48.19
2019-03-05T22:47:58.026Z,48.41
2019-03-05T22:50:25.490Z,48.60
2019-03-05T22:52:52.899Z,48.75
2019-03-05T22:55:20.421Z,48.82
2019-03-05T22:57:47.842Z,49.05
2019-03-05T23:03:21.314Z,48.86
2019-03-05T23:05:48.758Z,49.19
2019-03-05T23:08:16.190Z,49.65
2019-03-05T23:10:43.584Z,49.58
2019-03-05T23:13:10.987Z,49.58
2019-03-05T23:15:38.395Z,49.60
2019-03-05T23:18:05.825Z,49.65
2019-03-05T23:20:33.216Z,49.95
2019-03-05T23:23:00.628Z,49.89
2019-03-05T23:25:28.202Z,50.17
2019-03-05T23:27:55.595Z,50.44
2019-03-05T23:30:23.089Z,51.18
2019-03-05T23:32:51.177Z,51.23
2019-03-05T23:35:18.566Z,51.65
2019-03-05T23:37:45.979Z,51.98
2019-03-05T23:40:13.460Z,52.73
2019-03-05T23:42:40.887Z,53.00
2019-03-05T23:45:08.311Z,53.08
2019-03-05T23:47:35.847Z,52.92
2019-03-05T23:50:03.266Z,52.81
2019-03-05T23:52:30.680Z,52.91
2019-03-05T23:54:58.109Z,52.86
2019-03-05T23:57:25.517Z,53.02
2019-03-05T23:59:52.966Z,53.16
